Wilson Gaeta — 8PTS — position and weather

sailwx.info

Track history (hours):
 
Tides and Currents Weather Stations Pressure Air Temp Water Temp Dewpoint Dewpoint Depression Visibility Wind Speed Wind Dir Waves Ship Positions

Wilson Gaeta

Last reported at 2016-Aug-26 11:33 UTC. Time now 2016-Aug-27 04:40 UTC.
Position N 58°40' E 004°54'.

Length 88 m; draft 5.4 m.

Type: Ship. MMSI: 314237000.

Date/timePositionNaut miles runAvg speedWind from/ knotsBaromVisibWave heightAir tempDewpointWater temp
2016-Aug-26 11:33N 58°40' E 004°54'208 8.9
2016-Aug-25 12:05N 55°13' E 005°30'6 9.2
2016-Aug-25 11:24N 55°07' E 005°28'8 9.4
2016-Aug-25 10:32N 54°59' E 005°26'9 9.3
2016-Aug-25 09:32N 54°50' E 005°23'9 9.2
2016-Aug-25 08:32N 54°41' E 005°20'9 9.1
2016-Aug-25 07:32N 54°32' E 005°18'9 9.0
2016-Aug-25 06:32N 54°23' E 005°15'18 9.2
2016-Aug-25 04:33N 54°05' E 005°09'9 9.0
2016-Aug-25 03:30N 53°56' E 005°03'9 9.5
2016-Aug-25 02:33N 53°48' E 004°57'19 9.7
2016-Aug-25 00:33N 53°30' E 004°45'1110.0
2016-Aug-24 23:30N 53°20' E 004°39'1410.7
2016-Aug-24 22:11N 53°08' E 004°28'711.3
2016-Aug-24 21:33N 53°01' E 004°22'1111.2
2016-Aug-24 20:33N 52°51' E 004°14'1111.1
2016-Aug-24 19:32N 52°42' E 004°05'1411.2
2016-Aug-24 18:15N 52°29' E 003°54'811.1
2016-Aug-24 17:32N 52°21' E 003°52'1010.2
2016-Aug-24 16:33N 52°11' E 003°54'1010.1
2016-Aug-24 15:34N 52°02' E 004°00'6 5.5
2016-Aug-24 14:33N 51°57' E 004°05'0 0.0
2016-Aug-24 13:29N 51°57' E 004°05'0 0.0
2016-Aug-24 12:32N 51°57' E 004°05'0 0.0
2016-Aug-24 11:33N 51°57' E 004°05'0 0.0
2016-Aug-24 10:33N 51°57' E 004°05'0 0.0
2016-Aug-24 09:33N 51°57' E 004°05'0 0.0
2016-Aug-24 08:32N 51°57' E 004°05'0 0.0
2016-Aug-24 07:33N 51°57' E 004°05'0 0.0
2016-Aug-24 06:33N 51°57' E 004°05'0 0.0
2016-Aug-24 04:32N 51°57' E 004°05'0 0.0
2016-Aug-24 03:32N 51°57' E 004°05'0 0.0
2016-Aug-24 02:33N 51°57' E 004°05'0 0.0
2016-Aug-24 01:33N 51°57' E 004°05'0 0.0
2016-Aug-24 00:32N 51°57' E 004°05'0 0.0
2016-Aug-23 23:33N 51°57' E 004°05'0 0.0
2016-Aug-23 22:33N 51°57' E 004°05'0 0.0
2016-Aug-23 21:32N 51°57' E 004°05'0 0.0
2016-Aug-23 20:33N 51°57' E 004°05'2 2.3
2016-Aug-23 19:33N 51°59' E 004°05'1111.0
2016-Aug-23 18:33N 51°53' E 004°20'9 9.1
2016-Aug-23 17:34N 51°50' E 004°33'4 3.6
2016-Aug-23 16:32N 51°47' E 004°38'0 0.0
2016-Aug-23 15:32N 51°47' E 004°38'0 0.0
2016-Aug-23 14:26N 51°47' E 004°38'0 0.0
2016-Aug-23 13:32N 51°47' E 004°38'0 0.0
2016-Aug-23 12:32N 51°47' E 004°38'0 0.0
2016-Aug-23 11:32N 51°47' E 004°38'0 0.0
2016-Aug-23 10:32N 51°47' E 004°38'0 0.0
2016-Aug-23 09:32N 51°47' E 004°38'0 0.0
2016-Aug-23 08:32N 51°47' E 004°38'0 0.0
2016-Aug-23 07:29N 51°47' E 004°38'0 0.0
2016-Aug-23 06:32N 51°47' E 004°38'0 0.0
2016-Aug-23 05:32N 51°47' E 004°38'0 0.0
2016-Aug-23 04:32N 51°47' E 004°38'0 0.0
2016-Aug-23 03:33N 51°47' E 004°38'0 0.0
2016-Aug-23 02:18N 51°47' E 004°38'0 0.0
2016-Aug-23 01:33N 51°47' E 004°38'0 0.0
2016-Aug-23 00:33N 51°47' E 004°38'0 0.0
2016-Aug-22 23:33N 51°47' E 004°38'0 0.0
2016-Aug-22 22:33N 51°47' E 004°38'0 0.0
2016-Aug-22 21:33N 51°47' E 004°38'0 0.0
2016-Aug-22 20:27N 51°47' E 004°38'0 0.0
2016-Aug-22 19:27N 51°47' E 004°38'0 0.0
2016-Aug-22 18:24N 51°47' E 004°38'0 0.0
2016-Aug-22 17:30N 51°47' E 004°38'0 0.0
2016-Aug-22 16:33N 51°47' E 004°38'0 0.0
2016-Aug-22 15:30N 51°47' E 004°38'0 0.0
2016-Aug-22 14:15N 51°47' E 004°38'0 0.0
2016-Aug-22 13:33N 51°47' E 004°38'0 0.0
2016-Aug-22 12:24N 51°47' E 004°38'0 0.0
2016-Aug-22 11:33N 51°47' E 004°38'0 0.0
2016-Aug-22 10:33N 51°47' E 004°38'0 0.0
2016-Aug-22 09:33N 51°47' E 004°38'0 0.0
2016-Aug-22 08:33N 51°47' E 004°38'0 0.0
2016-Aug-22 07:06N 51°47' E 004°38'0 0.0
2016-Aug-22 06:30N 51°47' E 004°38'0 0.0
2016-Aug-22 05:27N 51°47' E 004°38'0 0.0
2016-Aug-22 04:33N 51°47' E 004°38'0 0.0
2016-Aug-22 03:33N 51°47' E 004°38'0 0.0
2016-Aug-22 02:33N 51°47' E 004°38'0 0.0
2016-Aug-22 01:27N 51°47' E 004°38'0 0.0
2016-Aug-22 00:33N 51°47' E 004°38'0 0.0
2016-Aug-21 23:33N 51°47' E 004°38'0 0.0
2016-Aug-21 22:30N 51°47' E 004°38'0 0.0
2016-Aug-21 21:30N 51°47' E 004°38'0 0.0
2016-Aug-21 20:33N 51°47' E 004°38'0 0.0
2016-Aug-21 19:27N 51°47' E 004°38'0 0.0
2016-Aug-21 18:33N 51°47' E 004°38'0 0.0
2016-Aug-21 17:30N 51°47' E 004°38'0 0.0
2016-Aug-21 16:24N 51°47' E 004°38'0 0.0
2016-Aug-21 15:33N 51°47' E 004°38'0 0.0
2016-Aug-21 14:33N 51°47' E 004°38'0 0.0
2016-Aug-21 13:33N 51°47' E 004°38'0 0.0
2016-Aug-21 12:33N 51°47' E 004°38'0 0.0
2016-Aug-21 11:33N 51°47' E 004°38'0 0.0
2016-Aug-21 09:24N 51°47' E 004°38'0 0.0
2016-Aug-21 08:27N 51°47' E 004°38'0 0.0
2016-Aug-21 07:27N 51°47' E 004°38'0 0.0
2016-Aug-21 06:33N 51°47' E 004°38'0 0.0
2016-Aug-21 05:33N 51°47' E 004°38'0 0.0
2016-Aug-21 04:33N 51°47' E 004°38'0 0.0
2016-Aug-21 03:33N 51°47' E 004°38'0 0.0
2016-Aug-21 02:33N 51°47' E 004°38'0 0.0
2016-Aug-21 01:33N 51°47' E 004°38'0 0.0
2016-Aug-21 00:33N 51°47' E 004°38'0 0.0
2016-Aug-20 23:30N 51°47' E 004°38'0 0.0
2016-Aug-20 22:33N 51°47' E 004°38'0 0.0
2016-Aug-20 21:33N 51°47' E 004°38'0 0.0
2016-Aug-20 20:33N 51°47' E 004°38'0 0.0
2016-Aug-20 19:33N 51°47' E 004°38'0 0.0
2016-Aug-20 18:30N 51°47' E 004°38'0 0.0
2016-Aug-20 17:33N 51°47' E 004°38'0 0.0
2016-Aug-20 16:27N 51°47' E 004°38'0 0.0
2016-Aug-20 15:33N 51°47' E 004°38'0 0.0
2016-Aug-20 14:33N 51°47' E 004°38'0 0.0
2016-Aug-20 13:33N 51°47' E 004°38'0 0.0
2016-Aug-20 12:30N 51°47' E 004°38'2 1.8
2016-Aug-20 11:34N 51°48' E 004°36'8 8.2
2016-Aug-20 10:34N 51°51' E 004°23'4 4.0
2016-Aug-20 09:33N 51°54' E 004°25'0 0.0
2016-Aug-20 08:33N 51°54' E 004°25'0 0.0
2016-Aug-20 07:33N 51°54' E 004°25'0 0.0
2016-Aug-20 06:30N 51°54' E 004°25'0 0.0
2016-Aug-20 05:31N 51°54' E 004°25'0 0.0
2016-Aug-20 04:33N 51°54' E 004°25'0 0.0
2016-Aug-20 03:31N 51°54' E 004°25'0 0.0
2016-Aug-20 02:33N 51°54' E 004°25'0 0.0
2016-Aug-20 01:30N 51°54' E 004°25'0 0.0
2016-Aug-20 00:31N 51°54' E 004°25'0 0.0
2016-Aug-19 23:24N 51°54' E 004°25'0 0.0
2016-Aug-19 22:30N 51°54' E 004°25'1 1.0
2016-Aug-19 21:34N 51°54' E 004°24'7 7.2
2016-Aug-19 20:34N 51°56' E 004°13'6 6.4
2016-Aug-19 19:33N 51°59' E 004°04'9 8.9
2016-Aug-19 18:33N 52°03' E 003°50'8 8.0
2016-Aug-19 17:33N 52°10' E 003°46'7 6.8
2016-Aug-19 16:33N 52°17' E 003°47'7 6.6
2016-Aug-19 15:33N 52°24' E 003°49'43 8.5
2016-Aug-19 10:33N 53°04' E 004°12'13 9.4
2016-Aug-19 09:06N 53°14' E 004°26'15 8.3
2016-Aug-19 07:19N 53°28' E 004°34'7 7.9
2016-Aug-19 06:28N 53°35' E 004°38'9 8.4
2016-Aug-19 05:27N 53°43' E 004°43'10 8.7
2016-Aug-19 04:22N 53°52' E 004°49'7 9.2
2016-Aug-19 03:33N 53°59' E 004°54'9 9.3
2016-Aug-19 02:33N 54°07' E 004°59'9 9.4
2016-Aug-19 01:33N 54°17' E 005°01'145 9.0
2016-Aug-18 09:30N 56°40' E 005°34'12 9.1
2016-Aug-18 08:10N 56°52' E 005°32'5 8.9
2016-Aug-18 07:33N 56°58' E 005°31'9 8.9
2016-Aug-18 06:32N 57°07' E 005°29'48 9.3
2016-Aug-18 01:21N 57°54' E 005°11'8 9.8
2016-Aug-18 00:32N 58°02' E 005°08'9 9.5
2016-Aug-17 23:33N 58°11' E 005°05'9 8.8
2016-Aug-17 22:34N 58°20' E 005°02'9 9.0
2016-Aug-17 21:34N 58°28' E 004°59'9 8.9
2016-Aug-17 20:34N 58°37' E 004°55'9 8.9
2016-Aug-17 19:34N 58°46' E 004°52'9 9.3
2016-Aug-17 18:34N 58°55' E 004°48'9 9.1
2016-Aug-17 17:33N 59°04' E 004°45'9 8.9
2016-Aug-17 16:30N 59°13' E 004°41'  
Track history (hours):
 
Tides and Currents Weather Stations Pressure Air Temp Water Temp Dewpoint Dewpoint Depression Visibility Wind Speed Wind Dir Waves Ship Positions

Wilson Gaeta

Last reported at 2016-Aug-26 11:33 UTC. Time now 2016-Aug-27 04:40 UTC.
Position N 58°40' E 004°54'.

Length 88 m; draft 5.4 m.

Type: Ship. MMSI: 314237000.

Date/timePositionNaut miles runAvg speedWind from/ knotsBaromVisibWave heightAir tempDewpointWater temp
2016-Aug-26 11:33N 58°40' E 004°54'208 8.9
2016-Aug-25 12:05N 55°13' E 005°30'6 9.2
2016-Aug-25 11:24N 55°07' E 005°28'8 9.4
2016-Aug-25 10:32N 54°59' E 005°26'9 9.3
2016-Aug-25 09:32N 54°50' E 005°23'9 9.2
2016-Aug-25 08:32N 54°41' E 005°20'9 9.1
2016-Aug-25 07:32N 54°32' E 005°18'9 9.0
2016-Aug-25 06:32N 54°23' E 005°15'18 9.2
2016-Aug-25 04:33N 54°05' E 005°09'9 9.0
2016-Aug-25 03:30N 53°56' E 005°03'9 9.5
2016-Aug-25 02:33N 53°48' E 004°57'19 9.7
2016-Aug-25 00:33N 53°30' E 004°45'1110.0
2016-Aug-24 23:30N 53°20' E 004°39'1410.7
2016-Aug-24 22:11N 53°08' E 004°28'711.3
2016-Aug-24 21:33N 53°01' E 004°22'1111.2
2016-Aug-24 20:33N 52°51' E 004°14'1111.1
2016-Aug-24 19:32N 52°42' E 004°05'1411.2
2016-Aug-24 18:15N 52°29' E 003°54'811.1
2016-Aug-24 17:32N 52°21' E 003°52'1010.2
2016-Aug-24 16:33N 52°11' E 003°54'1010.1
2016-Aug-24 15:34N 52°02' E 004°00'6 5.5
2016-Aug-24 14:33N 51°57' E 004°05'0 0.0
2016-Aug-24 13:29N 51°57' E 004°05'0 0.0
2016-Aug-24 12:32N 51°57' E 004°05'0 0.0
2016-Aug-24 11:33N 51°57' E 004°05'0 0.0
2016-Aug-24 10:33N 51°57' E 004°05'0 0.0
2016-Aug-24 09:33N 51°57' E 004°05'0 0.0
2016-Aug-24 08:32N 51°57' E 004°05'0 0.0
2016-Aug-24 07:33N 51°57' E 004°05'0 0.0
2016-Aug-24 06:33N 51°57' E 004°05'0 0.0
2016-Aug-24 04:32N 51°57' E 004°05'0 0.0
2016-Aug-24 03:32N 51°57' E 004°05'0 0.0
2016-Aug-24 02:33N 51°57' E 004°05'0 0.0
2016-Aug-24 01:33N 51°57' E 004°05'0 0.0
2016-Aug-24 00:32N 51°57' E 004°05'0 0.0
2016-Aug-23 23:33N 51°57' E 004°05'0 0.0
2016-Aug-23 22:33N 51°57' E 004°05'0 0.0
2016-Aug-23 21:32N 51°57' E 004°05'0 0.0
2016-Aug-23 20:33N 51°57' E 004°05'2 2.3
2016-Aug-23 19:33N 51°59' E 004°05'1111.0
2016-Aug-23 18:33N 51°53' E 004°20'9 9.1
2016-Aug-23 17:34N 51°50' E 004°33'4 3.6
2016-Aug-23 16:32N 51°47' E 004°38'0 0.0
2016-Aug-23 15:32N 51°47' E 004°38'0 0.0
2016-Aug-23 14:26N 51°47' E 004°38'0 0.0
2016-Aug-23 13:32N 51°47' E 004°38'0 0.0
2016-Aug-23 12:32N 51°47' E 004°38'0 0.0
2016-Aug-23 11:32N 51°47' E 004°38'0 0.0
2016-Aug-23 10:32N 51°47' E 004°38'0 0.0
2016-Aug-23 09:32N 51°47' E 004°38'0 0.0
2016-Aug-23 08:32N 51°47' E 004°38'0 0.0
2016-Aug-23 07:29N 51°47' E 004°38'0 0.0
2016-Aug-23 06:32N 51°47' E 004°38'0 0.0
2016-Aug-23 05:32N 51°47' E 004°38'0 0.0
2016-Aug-23 04:32N 51°47' E 004°38'0 0.0
2016-Aug-23 03:33N 51°47' E 004°38'0 0.0
2016-Aug-23 02:18N 51°47' E 004°38'0 0.0
2016-Aug-23 01:33N 51°47' E 004°38'0 0.0
2016-Aug-23 00:33N 51°47' E 004°38'0 0.0
2016-Aug-22 23:33N 51°47' E 004°38'0 0.0
2016-Aug-22 22:33N 51°47' E 004°38'0 0.0
2016-Aug-22 21:33N 51°47' E 004°38'0 0.0
2016-Aug-22 20:27N 51°47' E 004°38'0 0.0
2016-Aug-22 19:27N 51°47' E 004°38'0 0.0
2016-Aug-22 18:24N 51°47' E 004°38'0 0.0
2016-Aug-22 17:30N 51°47' E 004°38'0 0.0
2016-Aug-22 16:33N 51°47' E 004°38'0 0.0
2016-Aug-22 15:30N 51°47' E 004°38'0 0.0
2016-Aug-22 14:15N 51°47' E 004°38'0 0.0
2016-Aug-22 13:33N 51°47' E 004°38'0 0.0
2016-Aug-22 12:24N 51°47' E 004°38'0 0.0
2016-Aug-22 11:33N 51°47' E 004°38'0 0.0
2016-Aug-22 10:33N 51°47' E 004°38'0 0.0
2016-Aug-22 09:33N 51°47' E 004°38'0 0.0
2016-Aug-22 08:33N 51°47' E 004°38'0 0.0
2016-Aug-22 07:06N 51°47' E 004°38'0 0.0
2016-Aug-22 06:30N 51°47' E 004°38'0 0.0
2016-Aug-22 05:27N 51°47' E 004°38'0 0.0
2016-Aug-22 04:33N 51°47' E 004°38'0 0.0
2016-Aug-22 03:33N 51°47' E 004°38'0 0.0
2016-Aug-22 02:33N 51°47' E 004°38'0 0.0
2016-Aug-22 01:27N 51°47' E 004°38'0 0.0
2016-Aug-22 00:33N 51°47' E 004°38'0 0.0
2016-Aug-21 23:33N 51°47' E 004°38'0 0.0
2016-Aug-21 22:30N 51°47' E 004°38'0 0.0
2016-Aug-21 21:30N 51°47' E 004°38'0 0.0
2016-Aug-21 20:33N 51°47' E 004°38'0 0.0
2016-Aug-21 19:27N 51°47' E 004°38'0 0.0
2016-Aug-21 18:33N 51°47' E 004°38'0 0.0
2016-Aug-21 17:30N 51°47' E 004°38'0 0.0
2016-Aug-21 16:24N 51°47' E 004°38'0 0.0
2016-Aug-21 15:33N 51°47' E 004°38'0 0.0
2016-Aug-21 14:33N 51°47' E 004°38'0 0.0
2016-Aug-21 13:33N 51°47' E 004°38'0 0.0
2016-Aug-21 12:33N 51°47' E 004°38'0 0.0
2016-Aug-21 11:33N 51°47' E 004°38'0 0.0
2016-Aug-21 09:24N 51°47' E 004°38'0 0.0
2016-Aug-21 08:27N 51°47' E 004°38'0 0.0
2016-Aug-21 07:27N 51°47' E 004°38'0 0.0
2016-Aug-21 06:33N 51°47' E 004°38'0 0.0
2016-Aug-21 05:33N 51°47' E 004°38'0 0.0
2016-Aug-21 04:33N 51°47' E 004°38'0 0.0
2016-Aug-21 03:33N 51°47' E 004°38'0 0.0
2016-Aug-21 02:33N 51°47' E 004°38'0 0.0
2016-Aug-21 01:33N 51°47' E 004°38'0 0.0
2016-Aug-21 00:33N 51°47' E 004°38'0 0.0
2016-Aug-20 23:30N 51°47' E 004°38'0 0.0
2016-Aug-20 22:33N 51°47' E 004°38'0 0.0
2016-Aug-20 21:33N 51°47' E 004°38'0 0.0
2016-Aug-20 20:33N 51°47' E 004°38'0 0.0
2016-Aug-20 19:33N 51°47' E 004°38'0 0.0
2016-Aug-20 18:30N 51°47' E 004°38'0 0.0
2016-Aug-20 17:33N 51°47' E 004°38'0 0.0
2016-Aug-20 16:27N 51°47' E 004°38'0 0.0
2016-Aug-20 15:33N 51°47' E 004°38'0 0.0
2016-Aug-20 14:33N 51°47' E 004°38'0 0.0
2016-Aug-20 13:33N 51°47' E 004°38'0 0.0
2016-Aug-20 12:30N 51°47' E 004°38'2 1.8
2016-Aug-20 11:34N 51°48' E 004°36'8 8.2
2016-Aug-20 10:34N 51°51' E 004°23'4 4.0
2016-Aug-20 09:33N 51°54' E 004°25'0 0.0
2016-Aug-20 08:33N 51°54' E 004°25'0 0.0
2016-Aug-20 07:33N 51°54' E 004°25'0 0.0
2016-Aug-20 06:30N 51°54' E 004°25'0 0.0
2016-Aug-20 05:31N 51°54' E 004°25'0 0.0
2016-Aug-20 04:33N 51°54' E 004°25'0 0.0
2016-Aug-20 03:31N 51°54' E 004°25'0 0.0
2016-Aug-20 02:33N 51°54' E 004°25'0 0.0
2016-Aug-20 01:30N 51°54' E 004°25'0 0.0
2016-Aug-20 00:31N 51°54' E 004°25'0 0.0
2016-Aug-19 23:24N 51°54' E 004°25'0 0.0
2016-Aug-19 22:30N 51°54' E 004°25'1 1.0
2016-Aug-19 21:34N 51°54' E 004°24'7 7.2
2016-Aug-19 20:34N 51°56' E 004°13'6 6.4
2016-Aug-19 19:33N 51°59' E 004°04'9 8.9
2016-Aug-19 18:33N 52°03' E 003°50'8 8.0
2016-Aug-19 17:33N 52°10' E 003°46'7 6.8
2016-Aug-19 16:33N 52°17' E 003°47'7 6.6
2016-Aug-19 15:33N 52°24' E 003°49'43 8.5
2016-Aug-19 10:33N 53°04' E 004°12'13 9.4
2016-Aug-19 09:06N 53°14' E 004°26'15 8.3
2016-Aug-19 07:19N 53°28' E 004°34'7 7.9
2016-Aug-19 06:28N 53°35' E 004°38'9 8.4
2016-Aug-19 05:27N 53°43' E 004°43'10 8.7
2016-Aug-19 04:22N 53°52' E 004°49'7 9.2
2016-Aug-19 03:33N 53°59' E 004°54'9 9.3
2016-Aug-19 02:33N 54°07' E 004°59'9 9.4
2016-Aug-19 01:33N 54°17' E 005°01'145 9.0
2016-Aug-18 09:30N 56°40' E 005°34'12 9.1
2016-Aug-18 08:10N 56°52' E 005°32'5 8.9
2016-Aug-18 07:33N 56°58' E 005°31'9 8.9
2016-Aug-18 06:32N 57°07' E 005°29'48 9.3
2016-Aug-18 01:21N 57°54' E 005°11'8 9.8
2016-Aug-18 00:32N 58°02' E 005°08'9 9.5
2016-Aug-17 23:33N 58°11' E 005°05'9 8.8
2016-Aug-17 22:34N 58°20' E 005°02'9 9.0
2016-Aug-17 21:34N 58°28' E 004°59'9 8.9
2016-Aug-17 20:34N 58°37' E 004°55'9 8.9
2016-Aug-17 19:34N 58°46' E 004°52'9 9.3
2016-Aug-17 18:34N 58°55' E 004°48'9 9.1
2016-Aug-17 17:33N 59°04' E 004°45'9 8.9
2016-Aug-17 16:30N 59°13' E 004°41'  

Dump ship's entire track history